Terminal Aerodrome Forecast
Issued by NWS Central Illinois

Home | Current Version | Previous Version | Text Only | Print | Product List | Glossary On
Versions: 1 2 3 4 5 6 7 8 9 10 11 12 13 14 15 16 17 18 19 20 21 22 23 24 25 26 27
144
FTUS43 KILX 291745
TAFSPI
TAF
KSPI 291745Z 2918/3018 07013G21KT 3SM SHRA BR VCTS OVC006CB
      TEMPO 2918/2920 2SM TSRA BR OVC010CB
     FM292000 08014G21KT 5SM -SHRA BR VCTS SCT007CB OVC010
      TEMPO 2920/2922 2SM TSRA BR OVC006CB
     FM292200 10014G21KT 4SM SHRA BR VCTS BKN007 OVC015CB
     FM300100 05011KT 2SM +SHRA VCTS OVC008CB
     FM300600 08010KT 4SM SHRA BR OVC008
     FM301100 11013KT 5SM SHRA BR OVC010=

USA.gov is the U.S. government's official web portal to all federal, state and local government web resources and services.